sensor_id;sensor_type;location;lat;lon;timestamp;temperature;humidity
6355;DHT22;3210;48.708;9.030;2024-03-02T08:46:37;6.60;99.90
6355;DHT22;3210;48.708;9.030;2024-03-02T09:07:50;7.50;99.90
6355;DHT22;3210;48.708;9.030;2024-03-02T09:10:28;7.70;99.90
6355;DHT22;3210;48.708;9.030;2024-03-02T09:13:12;7.70;99.90
6355;DHT22;3210;48.708;9.030;2024-03-02T09:15:45;7.90;67.60
6355;DHT22;3210;48.708;9.030;2024-03-02T09:18:52;7.80;89.80
6355;DHT22;3210;48.708;9.030;2024-03-02T09:21:31;8.00;74.30
6355;DHT22;3210;48.708;9.030;2024-03-02T09:24:13;8.10;41.10
6355;DHT22;3210;48.708;9.030;2024-03-02T09:27:38;8.00;33.60
6355;DHT22;3210;48.708;9.030;2024-03-02T09:30:27;8.10;4.30
6355;DHT22;3210;48.708;9.030;2024-03-02T09:33:25;8.30;1.00
6355;DHT22;3210;48.708;9.030;2024-03-02T09:37:30;8.60;1.00
6355;DHT22;3210;48.708;9.030;2024-03-02T10:03:36;10.30;1.00
6355;DHT22;3210;48.708;9.030;2024-03-02T10:06:21;10.60;1.00
6355;DHT22;3210;48.708;9.030;2024-03-02T10:08:50;10.60;1.00
6355;DHT22;3210;48.708;9.030;2024-03-02T10:12:01;10.90;1.00
6355;DHT22;3210;48.708;9.030;2024-03-02T10:14:46;11.00;1.00
6355;DHT22;3210;48.708;9.030;2024-03-02T10:17:22;11.00;1.00
6355;DHT22;3210;48.708;9.030;2024-03-02T10:20:00;11.10;1.00
6355;DHT22;3210;48.708;9.030;2024-03-02T10:23:16;11.20;1.00
6355;DHT22;3210;48.708;9.030;2024-03-02T10:31:35;11.40;1.00
6355;DHT22;3210;48.708;9.030;2024-03-02T10:37:52;11.60;1.00
6355;DHT22;3210;48.708;9.030;2024-03-02T10:40:35;11.70;1.00
6355;DHT22;3210;48.708;9.030;2024-03-02T10:43:46;11.80;1.00
6355;DHT22;3210;48.708;9.030;2024-03-02T10:46:02;12.00;1.00
6355;DHT22;3210;48.708;9.030;2024-03-02T10:48:30;12.00;1.00
6355;DHT22;3210;48.708;9.030;2024-03-02T10:51:24;12.20;1.00
6355;DHT22;3210;48.708;9.030;2024-03-02T10:54:08;12.10;1.00
6355;DHT22;3210;48.708;9.030;2024-03-02T10:56:49;12.40;1.00
6355;DHT22;3210;48.708;9.030;2024-03-02T10:59:46;12.40;1.00
6355;DHT22;3210;48.708;9.030;2024-03-02T11:02:16;12.70;1.00
6355;DHT22;3210;48.708;9.030;2024-03-02T11:04:47;12.70;1.00
6355;DHT22;3210;48.708;9.030;2024-03-02T11:07:27;12.70;1.00
6355;DHT22;3210;48.708;9.030;2024-03-02T11:13:02;12.80;1.00
6355;DHT22;3210;48.708;9.030;2024-03-02T11:16:11;12.80;1.00
6355;DHT22;3210;48.708;9.030;2024-03-02T11:18:49;12.70;1.00
6355;DHT22;3210;48.708;9.030;2024-03-02T11:21:23;12.70;1.00
6355;DHT22;3210;48.708;9.030;2024-03-02T11:23:51;12.70;1.00
6355;DHT22;3210;48.708;9.030;2024-03-02T11:26:18;12.60;1.00
6355;DHT22;3210;48.708;9.030;2024-03-02T11:28:51;12.60;1.00
6355;DHT22;3210;48.708;9.030;2024-03-02T11:31:22;12.80;1.00
6355;DHT22;3210;48.708;9.030;2024-03-02T11:33:51;13.00;1.00
6355;DHT22;3210;48.708;9.030;2024-03-02T11:36:22;13.00;1.00
6355;DHT22;3210;48.708;9.030;2024-03-02T11:39:46;13.10;1.00
6355;DHT22;3210;48.708;9.030;2024-03-02T11:42:14;13.20;1.00
6355;DHT22;3210;48.708;9.030;2024-03-02T11:45:02;13.20;1.00
6355;DHT22;3210;48.708;9.030;2024-03-02T11:48:00;13.10;1.00
6355;DHT22;3210;48.708;9.030;2024-03-02T11:56:27;13.20;1.00
6355;DHT22;3210;48.708;9.030;2024-03-02T11:57:37;13.10;1.00
6355;DHT22;3210;48.708;9.030;2024-03-02T12:00:33;13.40;1.00
6355;DHT22;3210;48.708;9.030;2024-03-02T12:03:01;13.50;1.00
6355;DHT22;3210;48.708;9.030;2024-03-02T12:05:46;13.40;1.00
6355;DHT22;3210;48.708;9.030;2024-03-02T12:08:33;13.70;1.00
6355;DHT22;3210;48.708;9.030;2024-03-02T12:11:54;13.80;1.00
6355;DHT22;3210;48.708;9.030;2024-03-02T12:14:22;13.70;1.00
6355;DHT22;3210;48.708;9.030;2024-03-02T12:17:00;13.80;1.00
6355;DHT22;3210;48.708;9.030;2024-03-02T12:20:04;13.80;1.00
6355;DHT22;3210;48.708;9.030;2024-03-02T12:23:07;13.70;1.00
6355;DHT22;3210;48.708;9.030;2024-03-02T12:26:01;13.60;1.00
6355;DHT22;3210;48.708;9.030;2024-03-02T12:28:47;13.70;1.00
6355;DHT22;3210;48.708;9.030;2024-03-02T12:31:58;13.70;1.00
6355;DHT22;3210;48.708;9.030;2024-03-02T12:44:24;13.80;1.00
6355;DHT22;3210;48.708;9.030;2024-03-02T12:47:27;13.90;1.00
6355;DHT22;3210;48.708;9.030;2024-03-02T12:50:22;13.80;1.00
6355;DHT22;3210;48.708;9.030;2024-03-02T12:53:03;13.90;1.00
6355;DHT22;3210;48.708;9.030;2024-03-02T12:56:02;13.80;1.00
6355;DHT22;3210;48.708;9.030;2024-03-02T12:58:45;13.90;1.00
6355;DHT22;3210;48.708;9.030;2024-03-02T13:01:36;14.00;1.00
6355;DHT22;3210;48.708;9.030;2024-03-02T13:04:06;14.10;1.00
6355;DHT22;3210;48.708;9.030;2024-03-02T13:06:56;14.00;1.00
6355;DHT22;3210;48.708;9.030;2024-03-02T13:09:29;14.10;1.00
6355;DHT22;3210;48.708;9.030;2024-03-02T13:12:12;14.20;1.00
6355;DHT22;3210;48.708;9.030;2024-03-02T13:15:37;14.10;1.00
6355;DHT22;3210;48.708;9.030;2024-03-02T13:28:19;14.10;1.00
6355;DHT22;3210;48.708;9.030;2024-03-02T13:30:57;14.20;1.00
6355;DHT22;3210;48.708;9.030;2024-03-02T13:33:27;14.20;1.00
6355;DHT22;3210;48.708;9.030;2024-03-02T13:36:03;14.10;1.00
6355;DHT22;3210;48.708;9.030;2024-03-02T13:49:06;14.20;1.00
6355;DHT22;3210;48.708;9.030;2024-03-02T13:50:42;14.00;1.00
6355;DHT22;3210;48.708;9.030;2024-03-02T13:53:52;13.90;1.00
6355;DHT22;3210;48.708;9.030;2024-03-02T13:56:38;13.80;1.00
6355;DHT22;3210;48.708;9.030;2024-03-02T14:10:17;13.50;1.00
6355;DHT22;3210;48.708;9.030;2024-03-02T14:12:47;13.40;1.00
6355;DHT22;3210;48.708;9.030;2024-03-02T14:16:01;13.40;1.00
6355;DHT22;3210;48.708;9.030;2024-03-02T14:18:55;13.40;1.00
6355;DHT22;3210;48.708;9.030;2024-03-02T14:22:03;13.40;1.00
6355;DHT22;3210;48.708;9.030;2024-03-02T14:25:02;13.20;1.00
6355;DHT22;3210;48.708;9.030;2024-03-02T14:33:36;13.30;1.00
6355;DHT22;3210;48.708;9.030;2024-03-02T14:40:50;13.40;1.00
6355;DHT22;3210;48.708;9.030;2024-03-02T14:45:12;13.30;1.00
6355;DHT22;3210;48.708;9.030;2024-03-02T14:47:42;13.50;1.00
6355;DHT22;3210;48.708;9.030;2024-03-02T14:50:25;13.50;1.00
6355;DHT22;3210;48.708;9.030;2024-03-02T14:53:02;13.50;1.00
6355;DHT22;3210;48.708;9.030;2024-03-02T14:59:02;13.50;1.00
6355;DHT22;3210;48.708;9.030;2024-03-02T15:04:22;13.60;1.00
6355;DHT22;3210;48.708;9.030;2024-03-02T15:15:48;13.40;1.00
6355;DHT22;3210;48.708;9.030;2024-03-02T15:24:41;13.10;1.00
6355;DHT22;3210;48.708;9.030;2024-03-02T15:27:28;13.00;1.00
6355;DHT22;3210;48.708;9.030;2024-03-02T15:29:57;12.90;1.00
6355;DHT22;3210;48.708;9.030;2024-03-02T15:32:45;12.80;1.00
6355;DHT22;3210;48.708;9.030;2024-03-02T15:35:26;12.80;1.00
6355;DHT22;3210;48.708;9.030;2024-03-02T15:37:53;12.80;1.00
6355;DHT22;3210;48.708;9.030;2024-03-02T15:40:21;12.60;1.00
6355;DHT22;3210;48.708;9.030;2024-03-02T16:07:06;12.40;1.00
6355;DHT22;3210;48.708;9.030;2024-03-02T16:09:36;12.30;1.00
6355;DHT22;3210;48.708;9.030;2024-03-02T16:15:21;12.10;1.00
6355;DHT22;3210;48.708;9.030;2024-03-02T16:17:47;12.00;1.00
6355;DHT22;3210;48.708;9.030;2024-03-02T16:20:15;12.00;1.00
6355;DHT22;3210;48.708;9.030;2024-03-02T16:22:42;12.00;1.00
6355;DHT22;3210;48.708;9.030;2024-03-02T16:25:29;11.90;1.00
6355;DHT22;3210;48.708;9.030;2024-03-02T16:27:58;11.90;1.00
6355;DHT22;3210;48.708;9.030;2024-03-02T16:30:28;11.90;1.00
6355;DHT22;3210;48.708;9.030;2024-03-02T16:33:01;11.70;1.00
6355;DHT22;3210;48.708;9.030;2024-03-02T16:35:40;11.60;1.00
6355;DHT22;3210;48.708;9.030;2024-03-02T16:38:25;11.60;1.00
6355;DHT22;3210;48.708;9.030;2024-03-02T16:41:19;11.60;1.00
6355;DHT22;3210;48.708;9.030;2024-03-02T16:44:21;11.50;1.00
6355;DHT22;3210;48.708;9.030;2024-03-02T17:03:19;10.90;1.00
6355;DHT22;3210;48.708;9.030;2024-03-02T17:06:04;10.90;1.00
6355;DHT22;3210;48.708;9.030;2024-03-02T17:13:46;10.80;1.00
6355;DHT22;3210;48.708;9.030;2024-03-02T17:16:24;10.70;1.00
6355;DHT22;3210;48.708;9.030;2024-03-02T17:18:53;10.70;1.00
6355;DHT22;3210;48.708;9.030;2024-03-02T17:21:44;10.60;1.00
6355;DHT22;3210;48.708;9.030;2024-03-02T17:24:53;10.60;1.00
6355;DHT22;3210;48.708;9.030;2024-03-02T17:27:53;10.50;1.00
6355;DHT22;3210;48.708;9.030;2024-03-02T17:30:54;10.60;1.00
6355;DHT22;3210;48.708;9.030;2024-03-02T17:36:18;10.50;1.00
6355;DHT22;3210;48.708;9.030;2024-03-02T17:44:08;10.40;1.00
6355;DHT22;3210;48.708;9.030;2024-03-02T18:33:50;10.10;34.60
6355;DHT22;3210;48.708;9.030;2024-03-02T18:36:22;9.90;51.00
6355;DHT22;3210;48.708;9.030;2024-03-02T18:38:50;9.80;80.90
6355;DHT22;3210;48.708;9.030;2024-03-02T18:43:55;9.90;99.90
6355;DHT22;3210;48.708;9.030;2024-03-02T18:46:30;9.80;99.90
6355;DHT22;3210;48.708;9.030;2024-03-02T19:10:44;9.50;99.90
6355;DHT22;3210;48.708;9.030;2024-03-02T19:13:11;9.50;99.90
6355;DHT22;3210;48.708;9.030;2024-03-02T20:25:14;8.30;99.90
6355;DHT22;3210;48.708;9.030;2024-03-02T20:27:42;8.20;1.00
6355;DHT22;3210;48.708;9.030;2024-03-02T20:43:11;8.00;1.00
6355;DHT22;3210;48.708;9.030;2024-03-02T20:45:39;8.00;1.00
6355;DHT22;3210;48.708;9.030;2024-03-02T20:53:17;8.00;1.00
6355;DHT22;3210;48.708;9.030;2024-03-02T20:55:44;7.90;1.00
6355;DHT22;3210;48.708;9.030;2024-03-02T20:58:14;7.90;1.00
6355;DHT22;3210;48.708;9.030;2024-03-02T21:00:59;7.80;1.00
6355;DHT22;3210;48.708;9.030;2024-03-02T21:03:47;7.60;1.00
6355;DHT22;3210;48.708;9.030;2024-03-02T21:06:16;7.60;1.00
6355;DHT22;3210;48.708;9.030;2024-03-02T21:08:58;7.60;1.00
6355;DHT22;3210;48.708;9.030;2024-03-02T21:11:41;7.60;1.00
6355;DHT22;3210;48.708;9.030;2024-03-02T21:36:31;7.70;1.00
6355;DHT22;3210;48.708;9.030;2024-03-02T21:38:58;7.60;1.00
6355;DHT22;3210;48.708;9.030;2024-03-02T21:51:49;7.90;1.00
6355;DHT22;3210;48.708;9.030;2024-03-02T21:54:17;7.90;1.00
6355;DHT22;3210;48.708;9.030;2024-03-02T21:59:25;7.90;1.00
6355;DHT22;3210;48.708;9.030;2024-03-02T22:01:53;7.80;1.00
6355;DHT22;3210;48.708;9.030;2024-03-02T22:05:16;7.90;1.00
6355;DHT22;3210;48.708;9.030;2024-03-02T22:26:31;7.30;34.00
6355;DHT22;3210;48.708;9.030;2024-03-02T22:28:58;7.30;43.20
6355;DHT22;3210;48.708;9.030;2024-03-02T22:31:44;7.30;82.30
6355;DHT22;3210;48.708;9.030;2024-03-02T22:34:24;7.20;99.90
6355;DHT22;3210;48.708;9.030;2024-03-02T22:37:28;7.20;99.90
6355;DHT22;3210;48.708;9.030;2024-03-02T22:40:05;7.20;99.90
6355;DHT22;3210;48.708;9.030;2024-03-02T22:43:09;7.10;99.90
6355;DHT22;3210;48.708;9.030;2024-03-02T22:45:56;7.10;99.90
6355;DHT22;3210;48.708;9.030;2024-03-02T22:48:30;7.00;99.90
6355;DHT22;3210;48.708;9.030;2024-03-02T22:51:34;6.90;99.90
6355;DHT22;3210;48.708;9.030;2024-03-02T22:54:20;6.80;99.90
6355;DHT22;3210;48.708;9.030;2024-03-02T22:57:03;6.80;99.90
6355;DHT22;3210;48.708;9.030;2024-03-02T23:03:15;6.60;99.90
6355;DHT22;3210;48.708;9.030;2024-03-02T23:05:52;6.70;99.90
6355;DHT22;3210;48.708;9.030;2024-03-02T23:08:32;6.70;1.00
6355;DHT22;3210;48.708;9.030;2024-03-02T23:11:05;6.70;1.00
6355;DHT22;3210;48.708;9.030;2024-03-02T23:13:37;6.70;1.00
6355;DHT22;3210;48.708;9.030;2024-03-02T23:16:14;6.60;99.90
6355;DHT22;3210;48.708;9.030;2024-03-02T23:19:02;6.60;1.00
6355;DHT22;3210;48.708;9.030;2024-03-02T23:21:40;6.60;1.00
6355;DHT22;3210;48.708;9.030;2024-03-02T23:24:13;6.60;1.00
6355;DHT22;3210;48.708;9.030;2024-03-02T23:26:59;6.60;1.00
6355;DHT22;3210;48.708;9.030;2024-03-02T23:29:46;6.60;1.00
6355;DHT22;3210;48.708;9.030;2024-03-02T23:32:38;6.60;1.00
6355;DHT22;3210;48.708;9.030;2024-03-02T23:35:27;6.70;1.00
6355;DHT22;3210;48.708;9.030;2024-03-02T23:37:57;6.60;1.00
6355;DHT22;3210;48.708;9.030;2024-03-02T23:40:31;6.70;1.00
6355;DHT22;3210;48.708;9.030;2024-03-02T23:43:17;6.70;1.00
6355;DHT22;3210;48.708;9.030;2024-03-02T23:46:03;6.60;1.00
